Time;durP1;ratioP1;P1;durP2;ratioP2;P2;SDS_P1;SDS_P2;PMS_P1;PMS_P2;Temp;Humidity;BMP_temperature;BMP_pressure;BME280_temperature;BME280_humidity;BME280_pressure;Samples;Min_cycle;Max_cycle;Signal;HPM_P1;HPM_P2
2022/08/05 00:02:08;;;;;;;11.95;2.08;;;;;;;;;;5112977;28;20497;-79
2022/08/05 00:04:34;;;;;;;8.40;2.20;;;;;;;;;;5112870;28;20032;-79
2022/08/05 00:07:00;;;;;;;9.88;2.45;;;;;;;;;;5113030;28;20450;-79
2022/08/05 00:09:26;;;;;;;8.80;2.38;;;;;;;;;;5112681;28;20027;-79
2022/08/05 00:11:52;;;;;;;7.57;2.60;;;;;;;;;;5112547;28;20032;-79
2022/08/05 00:14:18;;;;;;;10.73;3.90;;;;;;;;;;5113807;28;20027;-79
2022/08/05 00:16:44;;;;;;;8.90;2.70;;;;;;;;;;5116333;28;20456;-79
2022/08/05 00:19:10;;;;;;;7.22;2.45;;;;;;;;;;5116404;28;20343;-79
2022/08/05 00:21:36;;;;;;;12.77;2.55;;;;;;;;;;5116240;28;20016;-79
2022/08/05 00:24:03;;;;;;;10.88;2.85;;;;;;;;;;5116627;28;20023;-79
2022/08/05 00:26:29;;;;;;;8.70;2.88;;;;;;;;;;5116082;28;20024;-79
2022/08/05 00:28:55;;;;;;;9.40;3.50;;;;;;;;;;5116099;28;20020;-79
2022/08/05 00:31:21;;;;;;;8.05;2.33;;;;;;;;;;5116246;28;20020;-79
2022/08/05 00:33:47;;;;;;;8.88;2.80;;;;;;;;;;5115805;28;20438;-79
2022/08/05 00:36:13;;;;;;;8.95;3.00;;;;;;;;;;5115827;28;20065;-79
2022/08/05 00:38:39;;;;;;;8.57;2.35;;;;;;;;;;5115918;28;20042;-79
2022/08/05 00:41:06;;;;;;;11.30;2.83;;;;;;;;;;5115919;28;20031;-79
2022/08/05 00:43:33;;;;;;;9.30;2.95;;;;;;;;;;5114686;28;20180;-79
2022/08/05 00:45:59;;;;;;;9.95;2.83;;;;;;;;;;5115652;28;20043;-79
2022/08/05 00:48:25;;;;;;;9.77;2.95;;;;;;;;;;5115717;28;20024;-79
2022/08/05 00:50:52;;;;;;;8.82;2.75;;;;;;;;;;5115473;28;20469;-79
2022/08/05 00:53:22;;;;;;;15.80;2.35;;;;;;;;;;5115742;28;20111;-79
2022/08/05 00:55:48;;;;;;;8.68;2.70;;;;;;;;;;5114270;28;20479;-79
2022/08/05 00:58:15;;;;;;;8.25;2.58;;;;;;;;;;5115457;28;20020;-79
2022/08/05 01:00:42;;;;;;;4.80;2.17;;;;;;;;;;5115645;28;20023;-79
2022/08/05 01:03:09;;;;;;;8.82;2.50;;;;;;;;;;5115490;28;20015;-79
2022/08/05 01:05:35;;;;;;;8.48;2.75;;;;;;;;;;5115533;28;20024;-79
2022/08/05 01:08:01;;;;;;;9.98;2.80;;;;;;;;;;5115454;28;20031;-79
2022/08/05 01:10:30;;;;;;;10.68;2.53;;;;;;;;;;5115207;28;20051;-79
2022/08/05 01:13:03;;;;;;;9.93;2.78;;;;;;;;;;5115314;28;20019;-79
2022/08/05 01:15:34;;;;;;;16.20;2.92;;;;;;;;;;5115479;28;20066;-79
2022/08/05 01:18:03;;;;;;;14.45;2.90;;;;;;;;;;5115198;28;20338;-79
2022/08/05 01:20:31;;;;;;;10.38;2.50;;;;;;;;;;5115313;28;20401;-79
2022/08/05 01:23:07;;;;;;;7.85;2.47;;;;;;;;;;5115013;28;20031;-79
2022/08/05 01:25:33;;;;;;;7.43;2.50;;;;;;;;;;5114968;28;20058;-79
2022/08/05 01:28:02;;;;;;;6.93;2.78;;;;;;;;;;5115025;28;20027;-79
2022/08/05 01:30:29;;;;;;;12.82;2.70;;;;;;;;;;5114814;28;20019;-79
2022/08/05 01:32:56;;;;;;;9.05;2.47;;;;;;;;;;5115187;28;20106;-79
2022/08/05 01:35:25;;;;;;;7.65;2.53;;;;;;;;;;5114911;28;20392;-79
2022/08/05 01:37:55;;;;;;;8.50;2.75;;;;;;;;;;5114845;28;20024;-79
2022/08/05 01:40:23;;;;;;;10.32;2.33;;;;;;;;;;5114609;28;20347;-79
2022/08/05 01:42:50;;;;;;;9.05;2.40;;;;;;;;;;5114627;28;20027;-79
2022/08/05 01:45:17;;;;;;;12.30;2.60;;;;;;;;;;5114818;28;20446;-79
2022/08/05 01:47:44;;;;;;;8.20;2.53;;;;;;;;;;5114757;28;20368;-79
2022/08/05 01:50:22;;;;;;;7.57;2.30;;;;;;;;;;5114752;28;20462;-79
2022/08/05 01:52:50;;;;;;;9.38;2.30;;;;;;;;;;5114828;28;20024;-79
2022/08/05 01:55:17;;;;;;;6.78;2.58;;;;;;;;;;5113026;28;20042;-79
2022/08/05 01:57:44;;;;;;;7.22;2.60;;;;;;;;;;5076549;28;20023;-79
2022/08/05 02:00:11;;;;;;;9.55;2.20;;;;;;;;;;5106136;28;20020;-79
2022/08/05 02:02:38;;;;;;;10.07;2.60;;;;;;;;;;5114342;28;20051;-79
2022/08/05 02:05:07;;;;;;;8.65;2.90;;;;;;;;;;5114351;28;20436;-79
2022/08/05 02:07:34;;;;;;;9.27;2.65;;;;;;;;;;5114639;28;20077;-79
2022/08/05 02:10:01;;;;;;;7.45;2.20;;;;;;;;;;5114575;28;20051;-79
2022/08/05 02:12:32;;;;;;;7.55;2.40;;;;;;;;;;5114292;28;20031;-79
2022/08/05 02:15:02;;;;;;;8.18;2.53;;;;;;;;;;5114545;28;20078;-79
2022/08/05 02:17:33;;;;;;;7.10;1.98;;;;;;;;;;5114546;28;20097;-79
2022/08/05 02:20:04;;;;;;;7.22;2.13;;;;;;;;;;5114523;28;20055;-79
2022/08/05 02:22:36;;;;;;;10.05;2.40;;;;;;;;;;5114138;28;20019;-79
2022/08/05 02:25:04;;;;;;;11.63;2.63;;;;;;;;;;5114144;28;20027;-79
2022/08/05 02:27:32;;;;;;;8.07;2.40;;;;;;;;;;5114679;28;20020;-79
2022/08/05 02:30:00;;;;;;;8.68;2.60;;;;;;;;;;5114006;28;20027;-79
2022/08/05 02:32:30;;;;;;;5.75;2.00;;;;;;;;;;5113953;28;20479;-79
2022/08/05 02:35:00;;;;;;;10.38;2.85;;;;;;;;;;5114289;28;20107;-79
2022/08/05 02:37:27;;;;;;;6.85;2.10;;;;;;;;;;5113464;28;20027;-79
2022/08/05 02:39:54;;;;;;;7.05;1.90;;;;;;;;;;5113845;28;20238;-79
2022/08/05 02:42:20;;;;;;;11.45;2.30;;;;;;;;;;5113950;28;20106;-79
2022/08/05 02:44:47;;;;;;;10.65;2.65;;;;;;;;;;5113787;28;20034;-79
2022/08/05 02:47:14;;;;;;;13.18;2.15;;;;;;;;;;5114151;28;20032;-79
2022/08/05 02:49:43;;;;;;;7.50;2.10;;;;;;;;;;5113551;28;20027;-79
2022/08/05 02:52:17;;;;;;;9.02;1.90;;;;;;;;;;5114048;28;20035;-79
2022/08/05 02:54:44;;;;;;;5.57;2.20;;;;;;;;;;5114095;28;20040;-79
2022/08/05 02:57:12;;;;;;;9.40;2.38;;;;;;;;;;5113806;28;20426;-79
2022/08/05 02:59:41;;;;;;;9.13;2.20;;;;;;;;;;5106389;28;20103;-79
2022/08/05 03:02:08;;;;;;;4.68;1.73;;;;;;;;;;5093335;28;20027;-79
2022/08/05 03:04:35;;;;;;;8.05;2.30;;;;;;;;;;5093030;28;20494;-79
2022/08/05 03:07:01;;;;;;;7.53;2.28;;;;;;;;;;5093369;28;20028;-79
2022/08/05 03:09:28;;;;;;;7.05;2.08;;;;;;;;;;5075276;28;20842;-79
2022/08/05 03:11:54;;;;;;;5.65;1.92;;;;;;;;;;5093686;28;20031;-79
2022/08/05 03:14:20;;;;;;;6.68;2.40;;;;;;;;;;5092981;28;20016;-79
2022/08/05 03:16:46;;;;;;;8.13;2.30;;;;;;;;;;5093162;28;20127;-79
2022/08/05 03:19:12;;;;;;;9.80;2.13;;;;;;;;;;5093278;28;20439;-79
2022/08/05 03:21:38;;;;;;;8.18;2.25;;;;;;;;;;5093393;28;20024;-79
2022/08/05 03:24:08;;;;;;;7.13;2.55;;;;;;;;;;5103352;28;20039;-79
2022/08/05 03:26:34;;;;;;;10.65;2.65;;;;;;;;;;5113470;28;20473;-79
2022/08/05 03:29:00;;;;;;;7.60;2.33;;;;;;;;;;5113435;28;20084;-79
2022/08/05 03:31:27;;;;;;;8.57;2.33;;;;;;;;;;5113578;28;20023;-79
2022/08/05 03:33:53;;;;;;;6.32;2.05;;;;;;;;;;5113205;28;20087;-79
2022/08/05 03:36:19;;;;;;;5.43;2.15;;;;;;;;;;5113516;28;20465;-79
2022/08/05 03:38:45;;;;;;;7.38;1.90;;;;;;;;;;5113274;28;20473;-79
2022/08/05 03:41:11;;;;;;;6.30;2.25;;;;;;;;;;5113422;28;20065;-79
2022/08/05 03:43:37;;;;;;;8.95;2.22;;;;;;;;;;5113452;28;20024;-79
2022/08/05 03:46:04;;;;;;;10.95;2.67;;;;;;;;;;5113356;28;20024;-79
2022/08/05 03:48:30;;;;;;;12.73;3.10;;;;;;;;;;5113713;28;20026;-79
2022/08/05 03:51:01;;;;;;;8.93;2.45;;;;;;;;;;5116870;28;20054;-79
2022/08/05 03:53:35;;;;;;;8.35;2.25;;;;;;;;;;5116903;28;20499;-79
2022/08/05 03:56:11;;;;;;;10.38;2.67;;;;;;;;;;5117350;28;20024;-79
2022/08/05 03:58:38;;;;;;;7.35;2.60;;;;;;;;;;5115907;28;20023;-79
2022/08/05 04:01:07;;;;;;;7.88;2.40;;;;;;;;;;5116689;28;20053;-79
2022/08/05 04:03:36;;;;;;;7.63;2.45;;;;;;;;;;5116694;28;20027;-79
2022/08/05 04:06:03;;;;;;;7.18;2.60;;;;;;;;;;5098393;28;20495;-79
2022/08/05 04:08:29;;;;;;;6.30;2.55;;;;;;;;;;5116831;28;20028;-79
2022/08/05 04:10:57;;;;;;;9.02;2.80;;;;;;;;;;5116762;28;20027;-80
2022/08/05 04:13:23;;;;;;;7.82;2.60;;;;;;;;;;5098347;28;20373;-79
2022/08/05 04:15:49;;;;;;;15.80;3.40;;;;;;;;;;5116990;28;20027;-79
2022/08/05 04:18:16;;;;;;;8.75;2.90;;;;;;;;;;5116734;28;20026;-79
2022/08/05 04:20:42;;;;;;;14.38;3.10;;;;;;;;;;5116634;28;20023;-79
2022/08/05 04:23:09;;;;;;;7.07;2.75;;;;;;;;;;5116577;28;20034;-79
2022/08/05 04:25:35;;;;;;;5.82;2.70;;;;;;;;;;5116272;28;20019;-79
2022/08/05 04:28:01;;;;;;;12.88;3.22;;;;;;;;;;5116901;28;20067;-79
2022/08/05 04:30:27;;;;;;;8.98;2.92;;;;;;;;;;5116302;28;20039;-79
2022/08/05 04:32:53;;;;;;;11.35;2.92;;;;;;;;;;5116338;28;20020;-79
2022/08/05 04:35:19;;;;;;;10.35;2.97;;;;;;;;;;5116036;28;20023;-79
2022/08/05 04:37:45;;;;;;;12.05;3.50;;;;;;;;;;5116605;28;20032;-79
2022/08/05 04:40:11;;;;;;;9.60;2.90;;;;;;;;;;5116236;28;20016;-79
2022/08/05 04:42:37;;;;;;;13.43;3.42;;;;;;;;;;5116164;28;20059;-79
2022/08/05 04:45:03;;;;;;;11.27;3.25;;;;;;;;;;5096200;28;20032;-79
2022/08/05 04:47:29;;;;;;;9.18;2.83;;;;;;;;;;5113993;28;20027;-79
2022/08/05 04:49:58;;;;;;;9.88;2.45;;;;;;;;;;5115615;28;20062;-79
2022/08/05 04:52:24;;;;;;;5.70;3.30;;;;;;;;;;5116103;28;20028;-79
2022/08/05 04:54:50;;;;;;;6.55;2.83;;;;;;;;;;5116008;28;20024;-79
2022/08/05 04:57:16;;;;;;;7.85;2.60;;;;;;;;;;5097667;28;20015;-79
2022/08/05 04:59:42;;;;;;;8.73;3.13;;;;;;;;;;5110799;28;20035;-79
2022/08/05 05:02:08;;;;;;;9.80;3.08;;;;;;;;;;5097818;28;20359;-79
2022/08/05 05:04:34;;;;;;;9.10;2.50;;;;;;;;;;5115723;28;20027;-79
2022/08/05 05:07:00;;;;;;;7.65;2.88;;;;;;;;;;5115699;28;20507;-79
2022/08/05 05:09:26;;;;;;;12.25;3.13;;;;;;;;;;5115837;28;20027;-79
2022/08/05 05:11:52;;;;;;;13.50;3.05;;;;;;;;;;5115753;28;20051;-79
2022/08/05 05:14:18;;;;;;;6.72;2.72;;;;;;;;;;5115581;28;20461;-79
2022/08/05 05:16:44;;;;;;;11.65;3.13;;;;;;;;;;5115640;28;20038;-79
2022/08/05 05:19:10;;;;;;;8.98;3.17;;;;;;;;;;5097141;28;20024;-79
2022/08/05 05:21:36;;;;;;;8.95;3.58;;;;;;;;;;5115234;28;20027;-79
2022/08/05 05:24:03;;;;;;;10.57;3.50;;;;;;;;;;5115652;28;20077;-79
2022/08/05 05:26:29;;;;;;;9.38;2.95;;;;;;;;;;5115579;28;20027;-79
2022/08/05 05:28:55;;;;;;;7.82;2.92;;;;;;;;;;5115173;28;20024;-79
2022/08/05 05:31:21;;;;;;;8.25;3.38;;;;;;;;;;5115220;28;20053;-79
2022/08/05 05:33:47;;;;;;;7.93;3.10;;;;;;;;;;5097025;28;20426;-79
2022/08/05 05:36:13;;;;;;;12.25;2.95;;;;;;;;;;5115259;28;20035;-79
2022/08/05 05:38:39;;;;;;;13.40;3.38;;;;;;;;;;5115319;28;20031;-79
2022/08/05 05:41:05;;;;;;;9.25;2.92;;;;;;;;;;5114609;28;20028;-79
2022/08/05 05:43:31;;;;;;;9.77;3.03;;;;;;;;;;5114948;28;20362;-79
2022/08/05 05:45:57;;;;;;;9.88;3.42;;;;;;;;;;5114488;28;20088;-79
2022/08/05 05:48:23;;;;;;;7.75;2.97;;;;;;;;;;5114747;28;20447;-79
2022/08/05 05:50:51;;;;;;;8.90;3.30;;;;;;;;;;5114394;28;20101;-79
2022/08/05 05:53:17;;;;;;;10.13;3.50;;;;;;;;;;5114703;28;20019;-79
2022/08/05 05:55:43;;;;;;;6.78;4.15;;;;;;;;;;5114336;28;20019;-79
2022/08/05 05:58:09;;;;;;;11.85;3.70;;;;;;;;;;5114490;28;20019;-79
2022/08/05 06:00:35;;;;;;;9.35;3.47;;;;;;;;;;5099179;28;20150;-79
2022/08/05 06:03:02;;;;;;;8.60;3.67;;;;;;;;;;5108191;28;20103;-79
2022/08/05 06:05:28;;;;;;;9.35;3.60;;;;;;;;;;5114261;28;20018;-79
2022/08/05 06:07:54;;;;;;;13.43;4.82;;;;;;;;;;5114756;28;20051;-79
2022/08/05 06:10:20;;;;;;;10.77;4.20;;;;;;;;;;5113829;28;20480;-79
2022/08/05 06:12:46;;;;;;;10.10;3.75;;;;;;;;;;5113655;28;20453;-81
2022/08/05 06:15:12;;;;;;;11.07;4.18;;;;;;;;;;5114137;28;20080;-79
2022/08/05 06:17:38;;;;;;;9.40;4.50;;;;;;;;;;5114202;28;20365;-78
2022/08/05 06:20:04;;;;;;;10.90;4.47;;;;;;;;;;5114186;28;20072;-79
2022/08/05 06:22:31;;;;;;;10.38;4.70;;;;;;;;;;5114274;28;20020;-79
2022/08/05 06:24:58;;;;;;;13.80;4.38;;;;;;;;;;5113837;28;20031;-79
2022/08/05 06:27:24;;;;;;;11.45;3.83;;;;;;;;;;5095437;28;20038;-79
2022/08/05 06:29:50;;;;;;;9.43;3.80;;;;;;;;;;5113963;28;20473;-79
2022/08/05 06:32:16;;;;;;;9.23;3.58;;;;;;;;;;5095653;28;20350;-78
2022/08/05 06:34:42;;;;;;;9.68;3.25;;;;;;;;;;5113636;28;20019;-78
2022/08/05 06:37:09;;;;;;;7.97;3.92;;;;;;;;;;5111914;28;20473;-80
2022/08/05 06:39:35;;;;;;;7.00;2.95;;;;;;;;;;5113266;28;20469;-79
2022/08/05 06:42:01;;;;;;;10.52;2.88;;;;;;;;;;5103671;28;20386;-79
2022/08/05 06:44:28;;;;;;;7.93;2.40;;;;;;;;;;5093025;28;20020;-80
2022/08/05 06:46:55;;;;;;;6.88;2.63;;;;;;;;;;5101135;28;20101;-80
2022/08/05 06:49:21;;;;;;;10.25;2.67;;;;;;;;;;5104715;28;20035;-80
2022/08/05 06:51:48;;;;;;;7.40;2.20;;;;;;;;;;5093272;28;20462;-78
2022/08/05 06:54:13;;;;;;;6.38;2.20;;;;;;;;;;5093053;28;20052;-79
2022/08/05 06:56:40;;;;;;;10.80;2.67;;;;;;;;;;5101889;28;20023;-80
2022/08/05 06:59:06;;;;;;;6.65;2.28;;;;;;;;;;5098845;28;20024;-79
2022/08/05 07:01:32;;;;;;;9.02;2.60;;;;;;;;;;5106128;28;20027;-79
2022/08/05 07:04:00;;;;;;;5.53;2.55;;;;;;;;;;5093046;28;20046;-79
2022/08/05 07:06:26;;;;;;;8.93;2.30;;;;;;;;;;5093065;28;20027;-79
2022/08/05 07:08:52;;;;;;;5.88;2.35;;;;;;;;;;5093314;28;20020;-79
2022/08/05 07:11:18;;;;;;;9.23;2.58;;;;;;;;;;5092784;28;20028;-79
2022/08/05 07:19:15;;;;;;;5.97;1.70;;;;;;;;;;5093150;28;20031;-79
2022/08/05 07:21:41;;;;;;;5.85;1.88;;;;;;;;;;5093021;28;20059;-79
2022/08/05 07:24:08;;;;;;;9.30;1.67;;;;;;;;;;5106784;28;20024;-79
2022/08/05 07:26:34;;;;;;;6.15;1.98;;;;;;;;;;5117209;28;20099;-79
2022/08/05 07:29:00;;;;;;;8.13;1.40;;;;;;;;;;5117245;28;20108;-79
2022/08/05 07:31:26;;;;;;;4.82;1.65;;;;;;;;;;5116978;28;20020;-79
2022/08/05 07:33:52;;;;;;;4.60;1.45;;;;;;;;;;5117555;28;20107;-79
2022/08/05 07:36:18;;;;;;;6.53;1.55;;;;;;;;;;5117082;28;20102;-79
2022/08/05 07:38:44;;;;;;;5.15;1.30;;;;;;;;;;5117198;28;20440;-79
2022/08/05 07:41:10;;;;;;;6.50;1.67;;;;;;;;;;5116898;28;20055;-78
2022/08/05 07:43:37;;;;;;;3.92;1.30;;;;;;;;;;5117266;28;20020;-79
2022/08/05 07:46:03;;;;;;;6.57;1.52;;;;;;;;;;5117319;28;20047;-80
2022/08/05 07:48:29;;;;;;;5.65;1.50;;;;;;;;;;5116577;28;20092;-80
2022/08/05 07:50:55;;;;;;;8.15;1.63;;;;;;;;;;5116631;28;20458;-80
2022/08/05 07:53:21;;;;;;;5.10;1.23;;;;;;;;;;5116869;28;20039;-79
2022/08/05 07:55:47;;;;;;;4.70;1.60;;;;;;;;;;5110733;28;20335;-79
2022/08/05 07:58:13;;;;;;;6.05;1.30;;;;;;;;;;5096798;28;20031;-79
2022/08/05 08:00:39;;;;;;;2.95;1.30;;;;;;;;;;5112464;28;20023;-79
2022/08/05 08:03:09;;;;;;;4.53;1.23;;;;;;;;;;5117080;28;20087;-80
2022/08/05 08:05:35;;;;;;;5.80;1.33;;;;;;;;;;5116891;28;20012;-80
2022/08/05 08:08:01;;;;;;;2.95;1.00;;;;;;;;;;5116985;28;20095;-80
2022/08/05 08:10:28;;;;;;;2.10;0.90;;;;;;;;;;5116967;28;20019;-79
2022/08/05 08:12:54;;;;;;;2.67;0.70;;;;;;;;;;5116656;28;20027;-79
2022/08/05 08:15:20;;;;;;;4.78;0.90;;;;;;;;;;5116593;28;20028;-78
2022/08/05 08:17:46;;;;;;;6.15;0.80;;;;;;;;;;5116283;28;20453;-77
2022/08/05 08:20:12;;;;;;;3.78;1.08;;;;;;;;;;5116093;28;20011;-77
2022/08/05 08:22:38;;;;;;;5.88;1.00;;;;;;;;;;5115932;28;20027;-77
2022/08/05 08:25:05;;;;;;;3.97;1.15;;;;;;;;;;5116006;28;20020;-76
2022/08/05 08:27:31;;;;;;;3.35;0.52;;;;;;;;;;5115794;28;20027;-76
2022/08/05 08:29:57;;;;;;;4.50;0.55;;;;;;;;;;5115491;28;20035;-76
2022/08/05 08:32:24;;;;;;;0.90;0.50;;;;;;;;;;5115440;28;20117;-77
2022/08/05 08:34:50;;;;;;;2.10;0.40;;;;;;;;;;5096909;28;20030;-77
2022/08/05 08:37:16;;;;;;;4.07;0.63;;;;;;;;;;5113847;28;20023;-77
2022/08/05 08:39:43;;;;;;;1.55;0.50;;;;;;;;;;5095350;28;20031;-77
2022/08/05 08:42:09;;;;;;;1.17;0.50;;;;;;;;;;5095454;28;20077;-77
2022/08/05 08:44:35;;;;;;;1.77;0.60;;;;;;;;;;5095157;28;20090;-77
2022/08/05 08:47:06;;;;;;;2.05;0.40;;;;;;;;;;5094999;28;20081;-77
2022/08/05 08:49:33;;;;;;;3.72;0.60;;;;;;;;;;5095100;28;20085;-77
2022/08/05 08:52:26;;;;;;;3.38;0.63;;;;;;;;;;5083324;28;20352;-77
2022/08/05 08:54:53;;;;;;;1.77;0.60;;;;;;;;;;5079316;28;20032;-77
2022/08/05 08:57:19;;;;;;;1.85;0.50;;;;;;;;;;5077377;28;20457;-77
2022/08/05 08:59:46;;;;;;;1.25;0.40;;;;;;;;;;5076951;28;20120;-77
2022/08/05 09:02:13;;;;;;;1.83;0.40;;;;;;;;;;5076997;28;20025;-77
2022/08/05 09:04:39;;;;;;;1.23;0.38;;;;;;;;;;5076033;28;20690;-78
2022/08/05 09:07:06;;;;;;;2.15;0.30;;;;;;;;;;5074466;28;20035;-77
2022/08/05 09:09:36;;;;;;;0.75;0.40;;;;;;;;;;5074098;28;20033;-77
2022/08/05 09:12:04;;;;;;;0.88;0.30;;;;;;;;;;5073312;28;20462;-77
2022/08/05 09:14:34;;;;;;;0.82;0.43;;;;;;;;;;5080724;28;20012;-77
2022/08/05 09:17:00;;;;;;;4.22;0.40;;;;;;;;;;5067949;28;20443;-77
2022/08/05 09:19:26;;;;;;;2.00;0.28;;;;;;;;;;5074485;28;20016;-77
2022/08/05 09:21:53;;;;;;;3.17;0.50;;;;;;;;;;5074616;28;20077;-77
2022/08/05 09:24:19;;;;;;;2.83;0.50;;;;;;;;;;5074426;28;20029;-77
2022/08/05 09:26:52;;;;;;;1.25;0.40;;;;;;;;;;5074178;28;20086;-77
2022/08/05 09:29:18;;;;;;;3.35;0.50;;;;;;;;;;5075723;28;20054;-77
2022/08/05 09:32:00;;;;;;;1.20;0.40;;;;;;;;;;5085062;28;20165;-77
2022/08/05 09:34:26;;;;;;;4.18;0.40;;;;;;;;;;5088895;28;20488;-78
2022/08/05 09:36:52;;;;;;;3.03;0.50;;;;;;;;;;5092848;28;20377;-77
2022/08/05 09:39:18;;;;;;;27.02;2.53;;;;;;;;;;5094055;28;20035;-76
2022/08/05 09:41:58;;;;;;;19.08;3.80;;;;;;;;;;5093900;28;20039;-77
2022/08/05 09:44:37;;;;;;;24.90;1.80;;;;;;;;;;5093848;28;20031;-77
2022/08/05 09:47:08;;;;;;;1.67;0.40;;;;;;;;;;5093875;28;20431;-77
2022/08/05 09:49:34;;;;;;;4.55;1.38;;;;;;;;;;5088334;28;20130;-77
2022/08/05 09:52:15;;;;;;;1.23;0.40;;;;;;;;;;5111075;28;20046;-77
2022/08/05 09:54:51;;;;;;;5.13;0.95;;;;;;;;;;5114066;28;20591;-77
2022/08/05 09:57:36;;;;;;;2.38;0.50;;;;;;;;;;5112455;28;20015;-77
2022/08/05 10:00:13;;;;;;;2.08;0.55;;;;;;;;;;5109420;28;20027;-81
2022/08/05 10:02:43;;;;;;;3.00;0.50;;;;;;;;;;5114474;28;20019;-78
2022/08/05 10:05:14;;;;;;;2.33;1.05;;;;;;;;;;5114763;28;20019;-79
2022/08/05 10:08:00;;;;;;;1.92;0.60;;;;;;;;;;5096266;28;20028;-78
2022/08/05 10:10:27;;;;;;;6.05;0.68;;;;;;;;;;5114865;28;20019;-77
2022/08/05 10:12:54;;;;;;;1.73;0.40;;;;;;;;;;5114461;28;20024;-79
2022/08/05 10:15:25;;;;;;;2.33;0.50;;;;;;;;;;5114245;28;20019;-77
2022/08/05 10:18:06;;;;;;;1.48;0.32;;;;;;;;;;5114281;28;20031;-80
2022/08/05 10:20:32;;;;;;;4.43;0.90;;;;;;;;;;5111875;28;20360;-79
2022/08/05 10:23:00;;;;;;;4.25;0.60;;;;;;;;;;5114285;28;20024;-79
2022/08/05 10:25:26;;;;;;;2.45;0.30;;;;;;;;;;5113425;28;20099;-80
2022/08/05 10:27:52;;;;;;;1.75;0.40;;;;;;;;;;5113830;28;20098;-79
2022/08/05 10:30:19;;;;;;;3.50;0.70;;;;;;;;;;5113651;28;20024;-79
2022/08/05 10:32:46;;;;;;;1.88;0.43;;;;;;;;;;5095254;28;20024;-80
2022/08/05 10:35:12;;;;;;;4.18;0.60;;;;;;;;;;5113423;28;20031;-79
2022/08/05 10:37:39;;;;;;;2.97;0.47;;;;;;;;;;5113516;28;20024;-80
2022/08/05 10:40:09;;;;;;;1.65;0.68;;;;;;;;;;5112205;28;20024;-80
2022/08/05 10:42:37;;;;;;;1.83;0.57;;;;;;;;;;5111114;28;20024;-80
2022/08/05 10:45:05;;;;;;;1.45;0.30;;;;;;;;;;5104751;28;20069;-80
2022/08/05 10:47:33;;;;;;;3.55;1.10;;;;;;;;;;5113438;28;20019;-80
2022/08/05 10:50:00;;;;;;;0.77;0.40;;;;;;;;;;5113659;28;20077;-79
2022/08/05 10:52:40;;;;;;;2.80;0.60;;;;;;;;;;5095230;28;20058;-80
2022/08/05 10:55:08;;;;;;;2.03;0.30;;;;;;;;;;5113698;28;20016;-80
2022/08/05 10:57:36;;;;;;;3.20;0.22;;;;;;;;;;5112710;28;20016;-80
2022/08/05 11:00:10;;;;;;;3.88;0.30;;;;;;;;;;5113481;28;20030;-80
2022/08/05 11:02:36;;;;;;;1.58;0.40;;;;;;;;;;5114044;28;20465;-80
2022/08/05 11:05:05;;;;;;;1.95;0.30;;;;;;;;;;5115055;28;20049;-80
2022/08/05 11:07:33;;;;;;;3.83;0.50;;;;;;;;;;5111599;28;20024;-79
2022/08/05 11:10:01;;;;;;;1.50;0.40;;;;;;;;;;5113556;28;20020;-79
2022/08/05 11:12:37;;;;;;;0.77;0.35;;;;;;;;;;5114029;28;20020;-80
2022/08/05 11:15:10;;;;;;;1.33;0.32;;;;;;;;;;5113616;28;20094;-80
2022/08/05 11:17:37;;;;;;;4.93;0.40;;;;;;;;;;5113794;28;20024;-79
2022/08/05 11:20:04;;;;;;;2.60;0.52;;;;;;;;;;5113415;28;20016;-80
2022/08/05 11:22:47;;;;;;;1.63;0.30;;;;;;;;;;5093331;28;20056;-81
2022/08/05 11:25:32;;;;;;;4.50;0.32;;;;;;;;;;5113283;28;20027;-78
2022/08/05 11:28:18;;;;;;;3.00;0.22;;;;;;;;;;5113316;28;20034;-80
2022/08/05 11:33:25;;;;;;;1.95;0.30;;;;;;;;;;5113746;28;20020;-78
2022/08/05 11:35:52;;;;;;;0.82;0.30;;;;;;;;;;5113216;28;20027;-78
2022/08/05 11:38:18;;;;;;;1.35;0.30;;;;;;;;;;5113181;28;20020;-79
2022/08/05 11:41:00;;;;;;;0.47;0.20;;;;;;;;;;5113144;28;20030;-79
2022/08/05 11:43:26;;;;;;;;;;;;;;;;;;5113679;28;20039;-78
2022/08/05 11:45:53;;;;;;;1.77;0.40;;;;;;;;;;5113933;28;20013;-79
2022/08/05 11:48:19;;;;;;;2.05;0.40;;;;;;;;;;5113098;28;20019;-78
2022/08/05 11:50:46;;;;;;;1.95;0.28;;;;;;;;;;5113060;28;20146;-79
2022/08/05 11:53:12;;;;;;;1.70;0.40;;;;;;;;;;5113414;28;20016;-79
2022/08/05 11:55:51;;;;;;;5.50;0.40;;;;;;;;;;5094778;28;20114;-79
2022/08/05 11:58:33;;;;;;;2.10;0.30;;;;;;;;;;5113397;28;20028;-80
2022/08/05 12:01:07;;;;;;;3.17;0.30;;;;;;;;;;5100684;28;20027;-78
2022/08/05 12:03:45;;;;;;;1.02;0.32;;;;;;;;;;5110175;28;20378;-78
2022/08/05 12:06:12;;;;;;;3.42;0.30;;;;;;;;;;5111221;28;20047;-79
2022/08/05 12:08:47;;;;;;;0.70;0.40;;;;;;;;;;5113165;28;20081;-79
2022/08/05 12:11:20;;;;;;;0.90;0.30;;;;;;;;;;5115422;28;20354;-78
2022/08/05 12:13:56;;;;;;;1.35;0.90;;;;;;;;;;5116659;28;20464;-79
2022/08/05 12:16:23;;;;;;;3.58;0.38;;;;;;;;;;5116938;28;20023;-78
2022/08/05 12:18:49;;;;;;;4.93;0.45;;;;;;;;;;5116482;28;20024;-79
2022/08/05 12:21:23;;;;;;;7.03;0.40;;;;;;;;;;5116395;28;20055;-79
2022/08/05 12:23:58;;;;;;;2.38;0.40;;;;;;;;;;5116705;28;20102;-79
2022/08/05 12:26:24;;;;;;;2.38;0.47;;;;;;;;;;5098064;28;20361;-79
2022/08/05 12:28:50;;;;;;;1.75;0.30;;;;;;;;;;5116510;28;20028;-79
2022/08/05 12:31:17;;;;;;;3.42;0.28;;;;;;;;;;5098073;28;20460;-79
2022/08/05 12:33:44;;;;;;;2.17;0.40;;;;;;;;;;5116254;28;20012;-80
2022/08/05 12:36:11;;;;;;;2.60;0.30;;;;;;;;;;5116233;28;20024;-79
2022/08/05 12:38:38;;;;;;;1.95;0.30;;;;;;;;;;5116323;28;20012;-79
2022/08/05 12:41:06;;;;;;;2.53;0.32;;;;;;;;;;5115966;28;20031;-80
2022/08/05 12:43:32;;;;;;;2.88;0.30;;;;;;;;;;5116254;28;20043;-78
2022/08/05 12:45:58;;;;;;;2.10;0.30;;;;;;;;;;5116170;28;20028;-80
2022/08/05 12:48:24;;;;;;;1.58;0.28;;;;;;;;;;5097834;28;20028;-79
2022/08/05 12:51:09;;;;;;;3.45;0.50;;;;;;;;;;5115753;28;20112;-78
2022/08/05 12:53:40;;;;;;;2.03;0.40;;;;;;;;;;5108349;28;20025;-79
2022/08/05 12:56:25;;;;;;;1.90;0.52;;;;;;;;;;5087250;28;20549;-80
2022/08/05 12:59:19;;;;;;;1.85;0.22;;;;;;;;;;5095314;28;20072;-78
2022/08/05 13:01:54;;;;;;;3.13;0.32;;;;;;;;;;5094799;28;20420;-79
2022/08/05 13:04:20;;;;;;;0.50;0.20;;;;;;;;;;5102286;28;20377;-78
2022/08/05 13:06:46;;;;;;;0.68;0.20;;;;;;;;;;5115139;28;20415;-78
2022/08/05 13:09:13;;;;;;;4.68;0.30;;;;;;;;;;5114080;28;20054;-79
2022/08/05 13:11:43;;;;;;;3.35;0.82;;;;;;;;;;5114292;28;20106;-78
2022/08/05 13:14:29;;;;;;;4.68;0.50;;;;;;;;;;5113702;28;20527;-78
2022/08/05 13:16:56;;;;;;;4.30;0.47;;;;;;;;;;5114693;28;20458;-78
2022/08/05 13:19:23;;;;;;;1.63;0.30;;;;;;;;;;5114752;28;20020;-77
2022/08/05 13:21:50;;;;;;;2.33;0.47;;;;;;;;;;5113712;28;20736;-78
2022/08/05 13:24:16;;;;;;;3.28;0.55;;;;;;;;;;5112637;28;20035;-77
2022/08/05 13:26:43;;;;;;;3.72;0.40;;;;;;;;;;5114639;28;20120;-79
2022/08/05 13:29:09;;;;;;;1.58;0.50;;;;;;;;;;5114475;28;20023;-79
2022/08/05 13:31:35;;;;;;;5.32;0.32;;;;;;;;;;5116362;27;20019;-78
2022/08/05 13:34:01;;;;;;;1.90;0.22;;;;;;;;;;5117725;27;20373;-79
2022/08/05 13:36:27;;;;;;;2.67;0.50;;;;;;;;;;5129851;27;20023;-78
2022/08/05 13:38:53;;;;;;;3.92;0.40;;;;;;;;;;5114892;27;20321;-78
2022/08/05 13:41:19;;;;;;;5.15;0.40;;;;;;;;;;5114255;28;20019;-78
2022/08/05 13:43:45;;;;;;;3.88;0.30;;;;;;;;;;5114103;28;20481;-78
2022/08/05 13:46:12;;;;;;;2.72;0.40;;;;;;;;;;5114292;27;20107;-78
2022/08/05 13:48:38;;;;;;;0.95;0.30;;;;;;;;;;5116226;27;20031;-78
2022/08/05 13:51:12;;;;;;;0.73;0.38;;;;;;;;;;5134886;27;20039;-77
2022/08/05 13:53:39;;;;;;;1.48;0.40;;;;;;;;;;5134494;27;20016;-78
2022/08/05 13:56:05;;;;;;;2.55;0.40;;;;;;;;;;5117448;27;20421;-78
2022/08/05 13:58:31;;;;;;;1.27;0.30;;;;;;;;;;5093868;28;20016;-78
2022/08/05 14:00:58;;;;;;;1.88;0.50;;;;;;;;;;5099862;27;20053;-77
2022/08/05 14:03:26;;;;;;;1.80;0.43;;;;;;;;;;5123992;27;20101;-77
2022/08/05 14:05:52;;;;;;;3.30;0.40;;;;;;;;;;5128464;27;20051;-77
2022/08/05 14:08:18;;;;;;;2.58;0.30;;;;;;;;;;5118578;28;20027;-76
2022/08/05 14:10:44;;;;;;;1.10;0.40;;;;;;;;;;5097329;28;20100;-78
2022/08/05 14:13:10;;;;;;;4.70;0.50;;;;;;;;;;5115341;27;20015;-77
2022/08/05 14:15:36;;;;;;;1.40;0.32;;;;;;;;;;5109200;27;20094;-79
2022/08/05 14:18:03;;;;;;;1.70;0.30;;;;;;;;;;5114038;28;20016;-78
2022/08/05 14:20:29;;;;;;;6.22;0.50;;;;;;;;;;5113930;28;20028;-79
2022/08/05 14:22:55;;;;;;;2.10;0.35;;;;;;;;;;5113791;28;20083;-76
2022/08/05 14:25:21;;;;;;;6.05;0.50;;;;;;;;;;5113710;28;20462;-77
2022/08/05 14:27:49;;;;;;;4.70;0.35;;;;;;;;;;5113771;28;20032;-78
2022/08/05 14:30:15;;;;;;;5.28;0.77;;;;;;;;;;5113638;28;20031;-78
2022/08/05 14:32:41;;;;;;;1.55;0.38;;;;;;;;;;5112693;28;20032;-79
2022/08/05 14:35:08;;;;;;;2.90;0.40;;;;;;;;;;5113872;28;20027;-80
2022/08/05 14:37:34;;;;;;;4.82;0.50;;;;;;;;;;5109838;28;20020;-76
2022/08/05 14:40:00;;;;;;;2.97;0.40;;;;;;;;;;5118440;27;20015;-77
2022/08/05 14:42:26;;;;;;;2.33;0.40;;;;;;;;;;5118079;27;20023;-78
2022/08/05 14:44:52;;;;;;;3.90;0.60;;;;;;;;;;5095602;28;20024;-78
2022/08/05 14:47:18;;;;;;;1.77;0.40;;;;;;;;;;5113124;28;20385;-78
2022/08/05 14:49:45;;;;;;;2.28;0.40;;;;;;;;;;5113621;28;20047;-77
2022/08/05 14:52:11;;;;;;;2.00;0.60;;;;;;;;;;5123170;27;20024;-77
2022/08/05 14:54:38;;;;;;;1.67;0.45;;;;;;;;;;5123238;27;20518;-77